createdAt,value
2019-02-02T00:00:25.855Z,100678.08
2019-02-02T00:01:35.320Z,100682.77
2019-02-02T00:02:39.638Z,100682.27
2019-02-02T00:03:43.905Z,100680.59
2019-02-02T00:04:48.131Z,100676.91
2019-02-02T00:05:52.453Z,100680.45
2019-02-02T00:06:56.776Z,100673.91
2019-02-02T00:08:01.085Z,100679.60
2019-02-02T00:09:07.905Z,100679.43
2019-02-02T00:10:12.208Z,100677.92
2019-02-02T00:11:16.481Z,100684.44
2019-02-02T00:12:20.749Z,100680.77
2019-02-02T00:13:25.076Z,100678.61
2019-02-02T00:14:29.386Z,100682.45
2019-02-02T00:15:33.687Z,100683.45
2019-02-02T00:16:38.058Z,100673.09
2019-02-02T00:17:42.438Z,100685.95
2019-02-02T00:18:46.688Z,100682.62
2019-02-02T00:19:51.079Z,100680.78
2019-02-02T00:20:55.202Z,100682.95
2019-02-02T00:21:59.527Z,100688.13
2019-02-02T00:23:03.693Z,100682.10
2019-02-02T00:24:14.448Z,100683.61
2019-02-02T00:25:18.811Z,100689.45
2019-02-02T00:26:23.127Z,100686.44
2019-02-02T00:27:27.322Z,100687.12
2019-02-02T00:28:31.738Z,100688.61
2019-02-02T00:29:36.045Z,100687.95
2019-02-02T00:30:40.317Z,100688.78
2019-02-02T00:31:44.663Z,100688.13
2019-02-02T00:32:48.967Z,100683.78
2019-02-02T00:33:53.336Z,100682.62
2019-02-02T00:34:57.654Z,100687.13
2019-02-02T00:36:02.139Z,100685.78
2019-02-02T00:37:06.476Z,100691.79
2019-02-02T00:38:10.713Z,100687.29
2019-02-02T00:39:15.103Z,100688.97
2019-02-02T00:40:19.303Z,100687.27
2019-02-02T00:41:23.634Z,100685.80
2019-02-02T00:42:27.928Z,100684.46
2019-02-02T00:43:32.205Z,100689.80
2019-02-02T00:44:36.711Z,100684.60
2019-02-02T00:45:41.065Z,100683.12
2019-02-02T00:46:45.437Z,100680.09
2019-02-02T00:47:49.996Z,100679.42
2019-02-02T00:48:54.258Z,100680.77
2019-02-02T00:49:58.700Z,100683.11
2019-02-02T00:51:02.946Z,100680.77
2019-02-02T00:52:07.294Z,100678.09
2019-02-02T00:53:11.635Z,100679.25
2019-02-02T00:54:15.907Z,100680.26
2019-02-02T00:55:20.403Z,100681.42
2019-02-02T00:56:24.634Z,100679.75
2019-02-02T00:57:28.982Z,100682.42
2019-02-02T00:58:33.267Z,100677.77
2019-02-02T00:59:37.578Z,100679.58
2019-02-02T01:00:41.750Z,100676.09
2019-02-02T01:01:46.120Z,100680.09
2019-02-02T01:02:50.466Z,100680.77
2019-02-02T01:03:54.676Z,100682.11
2019-02-02T01:04:59.024Z,100680.45
2019-02-02T01:06:04.955Z,100683.12
2019-02-02T01:07:07.710Z,100683.45
2019-02-02T01:08:12.052Z,100679.75
2019-02-02T01:09:22.396Z,100682.11
2019-02-02T01:10:29.149Z,100685.42
2019-02-02T01:11:33.416Z,100688.46
2019-02-02T01:12:37.659Z,100679.74
2019-02-02T01:13:41.983Z,100678.09
2019-02-02T01:14:46.265Z,100675.42
2019-02-02T01:15:50.597Z,100679.58
2019-02-02T01:16:54.955Z,100675.23
2019-02-02T01:17:59.178Z,100679.58
2019-02-02T01:19:03.535Z,100678.08
2019-02-02T01:20:08.123Z,100677.42
2019-02-02T01:21:12.348Z,100677.09
2019-02-02T01:22:16.682Z,100681.76
2019-02-02T01:23:21.037Z,100684.45
2019-02-02T01:24:25.319Z,100682.75
2019-02-02T01:25:29.648Z,100685.78
2019-02-02T01:26:33.999Z,100687.13
2019-02-02T01:27:38.406Z,100686.62
2019-02-02T01:28:42.687Z,100682.94
2019-02-02T01:29:47.010Z,100684.78
2019-02-02T01:30:51.300Z,100681.93
2019-02-02T01:31:55.650Z,100684.78
2019-02-02T01:32:59.882Z,100683.77
2019-02-02T01:34:04.329Z,100676.41
2019-02-02T01:35:09.831Z,100678.08
2019-02-02T01:36:14.090Z,100682.59
2019-02-02T01:37:18.380Z,100674.39
2019-02-02T01:38:22.763Z,100676.73
2019-02-02T01:39:26.891Z,100673.41
2019-02-02T01:40:31.238Z,100682.41
2019-02-02T01:41:35.452Z,100675.07
2019-02-02T01:42:39.668Z,100674.39
2019-02-02T01:43:43.830Z,100676.06
2019-02-02T01:44:48.117Z,100675.41
2019-02-02T01:45:52.355Z,100677.06
2019-02-02T01:46:56.675Z,100678.73
2019-02-02T01:48:00.975Z,100676.06
2019-02-02T01:49:05.269Z,100676.06
2019-02-02T01:50:11.755Z,100683.44
2019-02-02T01:51:16.070Z,100678.09
2019-02-02T01:52:20.226Z,100683.59
2019-02-02T01:53:24.539Z,100680.40
2019-02-02T01:54:28.785Z,100681.24
2019-02-02T01:55:33.063Z,100683.56
2019-02-02T01:56:37.381Z,100684.76
2019-02-02T01:57:41.569Z,100680.06
2019-02-02T01:58:45.798Z,100681.73
2019-02-02T01:59:50.215Z,100687.74
2019-02-02T02:00:54.523Z,100685.72
2019-02-02T02:01:58.790Z,100680.73
2019-02-02T02:03:03.114Z,100681.89
2019-02-02T02:04:07.307Z,100687.06
2019-02-02T02:05:11.671Z,100679.70
2019-02-02T02:06:15.968Z,100685.70
2019-02-02T02:07:20.222Z,100683.36
2019-02-02T02:08:24.571Z,100681.88
2019-02-02T02:09:28.803Z,100685.89
2019-02-02T02:10:33.110Z,100696.74
2019-02-02T02:11:37.360Z,100681.02
2019-02-02T02:12:41.657Z,100688.36
2019-02-02T02:13:46.074Z,100684.34
2019-02-02T02:14:50.310Z,100686.52
2019-02-02T02:15:54.683Z,100682.00
2019-02-02T02:16:58.991Z,100678.37
2019-02-02T02:18:03.205Z,100683.72
2019-02-02T02:19:07.621Z,100674.36
2019-02-02T02:20:12.430Z,100669.00
2019-02-02T02:21:16.700Z,100679.02
2019-02-02T02:22:20.956Z,100687.70
2019-02-02T02:23:25.031Z,100681.05
2019-02-02T02:24:29.272Z,100687.38
2019-02-02T02:25:33.698Z,100680.05
2019-02-02T02:26:37.903Z,100683.38
2019-02-02T02:27:42.191Z,100684.55
2019-02-02T02:28:46.403Z,100681.36
2019-02-02T02:29:50.748Z,100674.00
2019-02-02T02:30:54.931Z,100685.70
2019-02-02T02:31:59.268Z,100680.69
2019-02-02T02:33:03.474Z,100683.03
2019-02-02T02:34:07.753Z,100679.88
2019-02-02T02:35:12.010Z,100681.72
2019-02-02T02:36:16.230Z,100678.21
2019-02-02T02:37:20.554Z,100682.38
2019-02-02T02:38:24.797Z,100691.89
2019-02-02T02:39:29.060Z,100680.70
2019-02-02T02:40:33.386Z,100687.22
2019-02-02T02:41:37.683Z,100675.36
2019-02-02T02:42:42.064Z,100683.36
2019-02-02T02:43:46.344Z,100684.05
2019-02-02T02:44:50.649Z,100682.71
2019-02-02T02:45:54.914Z,100687.55
2019-02-02T02:46:59.216Z,100682.20
2019-02-02T02:48:03.626Z,100687.70
2019-02-02T02:49:07.927Z,100685.03
2019-02-02T02:50:14.190Z,100690.38
2019-02-02T02:51:18.301Z,100691.03
2019-02-02T02:52:22.645Z,100691.03
2019-02-02T02:53:26.853Z,100687.02
2019-02-02T02:54:30.909Z,100694.04
2019-02-02T02:55:35.137Z,100700.73
2019-02-02T02:56:39.367Z,100694.73
2019-02-02T02:57:43.674Z,100703.26
2019-02-02T02:58:48.094Z,100695.71
2019-02-02T02:59:52.389Z,100694.05
2019-02-02T03:00:56.662Z,100694.37
2019-02-02T03:02:01.000Z,100692.70
2019-02-02T03:03:05.280Z,100697.55
2019-02-02T03:04:09.641Z,100702.73
2019-02-02T03:05:14.046Z,100698.39
2019-02-02T03:06:18.319Z,100709.75
2019-02-02T03:07:22.650Z,100701.72
2019-02-02T03:08:27.018Z,100705.05
2019-02-02T03:09:31.369Z,100704.05
2019-02-02T03:10:35.666Z,100706.04
2019-02-02T03:11:39.993Z,100706.88
2019-02-02T03:12:44.271Z,100702.70
2019-02-02T03:13:48.561Z,100705.56
2019-02-02T03:14:52.945Z,100704.73
2019-02-02T03:15:57.212Z,100699.34
2019-02-02T03:17:01.388Z,100704.05
2019-02-02T03:18:05.723Z,100701.37
2019-02-02T03:19:10.072Z,100710.41
2019-02-02T03:20:14.804Z,100709.41
2019-02-02T03:21:19.123Z,100709.41
2019-02-02T03:22:23.377Z,100706.04
2019-02-02T03:23:27.595Z,100708.06
2019-02-02T03:24:31.783Z,100705.20
2019-02-02T03:25:36.092Z,100709.91
2019-02-02T03:26:40.406Z,100713.92
2019-02-02T03:27:44.672Z,100711.23
2019-02-02T03:28:53.531Z,100711.39
2019-02-02T03:29:53.304Z,100712.08
2019-02-02T03:30:57.686Z,100706.40
2019-02-02T03:32:02.181Z,100706.40
2019-02-02T03:33:06.360Z,100711.56
2019-02-02T03:34:10.517Z,100715.76
2019-02-02T03:35:15.848Z,100714.06
2019-02-02T03:36:20.218Z,100710.23
2019-02-02T03:37:24.435Z,100720.43
2019-02-02T03:38:28.680Z,100719.42
2019-02-02T03:39:32.875Z,100719.42
2019-02-02T03:40:37.228Z,100716.74
2019-02-02T03:41:41.567Z,100716.92
2019-02-02T03:42:45.744Z,100715.41
2019-02-02T03:43:50.018Z,100718.92
2019-02-02T03:44:54.114Z,100715.05
2019-02-02T03:45:58.316Z,100719.72
2019-02-02T03:47:02.647Z,100720.09
2019-02-02T03:48:06.969Z,100712.05
2019-02-02T03:49:11.279Z,100713.39
2019-02-02T03:50:15.598Z,100713.06
2019-02-02T03:51:19.806Z,100710.39
2019-02-02T03:52:24.123Z,100712.38
2019-02-02T03:53:28.310Z,100700.19
2019-02-02T03:54:32.624Z,100708.39
2019-02-02T03:55:36.895Z,100697.36
2019-02-02T03:56:41.124Z,100705.72
2019-02-02T03:57:45.301Z,100711.06
2019-02-02T03:58:49.646Z,100706.73
2019-02-02T03:59:53.920Z,100708.06
2019-02-02T04:00:58.228Z,100700.21
2019-02-02T04:02:02.393Z,100704.73
2019-02-02T04:03:06.589Z,100702.23
2019-02-02T04:04:10.789Z,100698.22
2019-02-02T04:05:18.022Z,100693.52
2019-02-02T04:06:22.315Z,100699.05
2019-02-02T04:07:26.667Z,100699.23
2019-02-02T04:08:30.999Z,100700.06
2019-02-02T04:09:35.258Z,100705.41
2019-02-02T04:10:39.549Z,100702.23
2019-02-02T04:11:43.766Z,100694.02
2019-02-02T04:12:48.106Z,100698.72
2019-02-02T04:13:52.415Z,100699.38
2019-02-02T04:14:56.636Z,100709.25
2019-02-02T04:16:00.912Z,100705.08
2019-02-02T04:17:05.231Z,100707.76
2019-02-02T04:18:09.404Z,100711.77
2019-02-02T04:19:13.666Z,100710.76
2019-02-02T04:20:19.394Z,100714.95
2019-02-02T04:21:23.665Z,100708.26
2019-02-02T04:22:28.017Z,100702.73
2019-02-02T04:23:32.192Z,100706.77
2019-02-02T04:24:36.452Z,100711.08
2019-02-02T04:25:40.681Z,100710.08
2019-02-02T04:26:45.036Z,100712.92
2019-02-02T04:27:49.388Z,100714.09
2019-02-02T04:28:53.732Z,100711.08
2019-02-02T04:29:58.117Z,100708.09
2019-02-02T04:31:02.330Z,100711.74
2019-02-02T04:32:06.699Z,100713.41
2019-02-02T04:33:10.787Z,100712.94
2019-02-02T04:34:15.087Z,100715.44
2019-02-02T04:35:19.254Z,100713.41
2019-02-02T04:36:23.636Z,100715.91
2019-02-02T04:37:27.787Z,100718.94
2019-02-02T04:38:32.108Z,100714.92
2019-02-02T04:39:36.387Z,100721.44
2019-02-02T04:40:40.750Z,100716.59
2019-02-02T04:41:44.901Z,100715.44
2019-02-02T04:42:49.144Z,100716.77
2019-02-02T04:43:53.319Z,100717.78
2019-02-02T04:44:57.695Z,100720.61
2019-02-02T04:46:02.007Z,100720.12
2019-02-02T04:47:06.244Z,100715.78
2019-02-02T04:48:10.477Z,100717.45
2019-02-02T04:49:14.703Z,100723.79
2019-02-02T04:50:19.074Z,100725.95
2019-02-02T04:51:23.417Z,100719.12
2019-02-02T04:52:27.698Z,100718.79
2019-02-02T04:53:32.060Z,100720.78
2019-02-02T04:54:36.499Z,100720.12
2019-02-02T04:55:40.755Z,100718.79
2019-02-02T04:56:45.030Z,100718.28
2019-02-02T04:57:49.338Z,100721.46
2019-02-02T04:58:53.520Z,100716.77
2019-02-02T04:59:57.810Z,100719.80
2019-02-02T05:01:02.106Z,100712.92
2019-02-02T05:02:06.420Z,100713.44
2019-02-02T05:03:10.659Z,100720.96
2019-02-02T05:04:14.972Z,100717.27
2019-02-02T05:05:19.321Z,100717.78
2019-02-02T05:06:23.580Z,100720.12
2019-02-02T05:07:27.842Z,100718.79
2019-02-02T05:08:32.096Z,100731.16
2019-02-02T05:09:36.436Z,100720.96
2019-02-02T05:10:40.617Z,100717.45
2019-02-02T05:11:44.908Z,100729.82
2019-02-02T05:12:49.295Z,100730.16
2019-02-02T05:13:53.538Z,100727.80
2019-02-02T05:14:57.812Z,100730.50
2019-02-02T05:16:02.045Z,100729.50
2019-02-02T05:17:06.410Z,100725.16
2019-02-02T05:18:10.796Z,100733.83
2019-02-02T05:19:15.112Z,100731.16
2019-02-02T05:20:19.351Z,100733.33
2019-02-02T05:21:23.681Z,100733.51
2019-02-02T05:22:28.026Z,100736.19
2019-02-02T05:23:32.361Z,100736.52
2019-02-02T05:24:36.648Z,100738.17
2019-02-02T05:25:40.957Z,100738.17
2019-02-02T05:26:45.248Z,100737.34
2019-02-02T05:27:49.575Z,100736.84
2019-02-02T05:28:53.773Z,100739.70
2019-02-02T05:29:58.086Z,100747.54
2019-02-02T05:31:02.290Z,100742.69
2019-02-02T05:32:06.592Z,100741.53
2019-02-02T05:33:10.818Z,100742.53
2019-02-02T05:34:15.116Z,100731.98
2019-02-02T05:35:19.435Z,100738.20
2019-02-02T05:36:23.691Z,100735.84
2019-02-02T05:37:28.040Z,100738.03
2019-02-02T05:38:32.327Z,100733.50
2019-02-02T05:39:36.715Z,100736.50
2019-02-02T05:40:40.971Z,100737.02
2019-02-02T05:41:45.296Z,100736.52
2019-02-02T05:42:49.619Z,100737.84
2019-02-02T05:43:53.992Z,100740.20
2019-02-02T05:44:58.204Z,100743.20
2019-02-02T05:46:02.391Z,100737.17
2019-02-02T05:47:06.721Z,100741.52
2019-02-02T05:48:10.990Z,100743.03
2019-02-02T05:49:15.334Z,100745.20
2019-02-02T05:50:21.251Z,100743.86
2019-02-02T05:51:25.575Z,100748.88
2019-02-02T05:52:29.784Z,100749.87
2019-02-02T05:53:34.048Z,100751.90
2019-02-02T05:54:38.413Z,100752.22
2019-02-02T05:55:42.698Z,100748.20
2019-02-02T05:56:47.050Z,100753.38
2019-02-02T05:57:51.348Z,100754.72
2019-02-02T05:58:55.639Z,100755.56
2019-02-02T05:59:59.706Z,100751.87
2019-02-02T06:01:04.259Z,100755.23
2019-02-02T06:02:08.459Z,100755.20
2019-02-02T06:03:12.622Z,100759.90
2019-02-02T06:04:17.012Z,100760.25
2019-02-02T06:05:21.148Z,100762.91
2019-02-02T06:06:25.453Z,100764.77
2019-02-02T06:07:29.794Z,100772.80
2019-02-02T06:08:34.186Z,100770.95
2019-02-02T06:09:38.420Z,100771.61
2019-02-02T06:10:42.694Z,100763.07
2019-02-02T06:11:47.224Z,100768.61
2019-02-02T06:12:51.389Z,100776.47
2019-02-02T06:13:55.645Z,100766.59
2019-02-02T06:14:59.820Z,100772.80
2019-02-02T06:16:04.164Z,100771.97
2019-02-02T06:17:08.396Z,100774.64
2019-02-02T06:18:12.672Z,100775.63
2019-02-02T06:19:16.837Z,100777.13
2019-02-02T06:20:21.159Z,100772.95
2019-02-02T06:21:25.396Z,100773.95
2019-02-02T06:22:29.792Z,100769.95
2019-02-02T06:23:34.127Z,100775.30
2019-02-02T06:24:38.375Z,100781.98
2019-02-02T06:25:42.727Z,100778.47
2019-02-02T06:26:46.950Z,100781.66
2019-02-02T06:27:51.287Z,100786.33
2019-02-02T06:28:55.310Z,100786.00
2019-02-02T06:30:04.321Z,100791.68
2019-02-02T06:31:04.024Z,100786.33
2019-02-02T06:32:11.891Z,100792.19
2019-02-02T06:33:12.732Z,100787.52
2019-02-02T06:34:17.083Z,100794.72
2019-02-02T06:35:21.359Z,100798.05
2019-02-02T06:36:25.666Z,100797.70
2019-02-02T06:37:30.062Z,100801.21
2019-02-02T06:38:34.381Z,100799.19
2019-02-02T06:39:38.703Z,100794.34
2019-02-02T06:40:43.182Z,100795.86
2019-02-02T06:41:47.446Z,100796.02
2019-02-02T06:42:51.826Z,100801.05
2019-02-02T06:43:56.266Z,100802.86
2019-02-02T06:45:00.435Z,100799.55
2019-02-02T06:46:04.791Z,100802.55
2019-02-02T06:47:08.956Z,100801.73
2019-02-02T06:48:13.273Z,100800.38
2019-02-02T06:49:17.639Z,100800.05
2019-02-02T06:50:21.773Z,100803.38
2019-02-02T06:51:26.115Z,100799.03
2019-02-02T06:52:30.378Z,100805.75
2019-02-02T06:53:34.739Z,100806.08
2019-02-02T06:54:39.035Z,100798.88
2019-02-02T06:55:43.358Z,100806.41
2019-02-02T06:56:47.627Z,100810.08
2019-02-02T06:57:51.979Z,100802.39
2019-02-02T06:58:56.166Z,100812.10
2019-02-02T07:00:00.400Z,100811.11
2019-02-02T07:01:04.701Z,100816.47
2019-02-02T07:02:08.950Z,100815.47
2019-02-02T07:03:13.385Z,100824.16
2019-02-02T07:04:17.749Z,100820.16
2019-02-02T07:05:22.097Z,100814.11
2019-02-02T07:06:26.438Z,100816.45
2019-02-02T07:07:30.632Z,100819.63
2019-02-02T07:08:34.857Z,100828.32
2019-02-02T07:09:39.020Z,100835.52
2019-02-02T07:10:43.383Z,100833.19
2019-02-02T07:11:47.599Z,100833.69
2019-02-02T07:12:52.001Z,100838.53
2019-02-02T07:13:56.258Z,100833.17
2019-02-02T07:15:00.634Z,100841.39
2019-02-02T07:16:04.864Z,100843.21
2019-02-02T07:17:09.188Z,100839.04
2019-02-02T07:18:13.431Z,100842.88
2019-02-02T07:19:17.823Z,100838.71
2019-02-02T07:20:22.166Z,100843.87
2019-02-02T07:21:26.474Z,100845.23
2019-02-02T07:22:30.758Z,100844.05
2019-02-02T07:23:35.011Z,100840.88
2019-02-02T07:24:39.328Z,100837.55
2019-02-02T07:25:43.672Z,100839.86
2019-02-02T07:26:48.113Z,100839.22
2019-02-02T07:27:52.390Z,100837.19
2019-02-02T07:28:56.646Z,100839.86
2019-02-02T07:30:00.807Z,100835.52
2019-02-02T07:31:05.117Z,100836.02
2019-02-02T07:32:09.411Z,100836.52
2019-02-02T07:33:13.707Z,100837.55
2019-02-02T07:34:17.931Z,100840.55
2019-02-02T07:35:22.098Z,100832.20
2019-02-02T07:36:26.322Z,100834.02
2019-02-02T07:37:30.735Z,100838.87
2019-02-02T07:38:35.085Z,100833.19
2019-02-02T07:39:39.360Z,100839.04
2019-02-02T07:40:43.722Z,100842.22
2019-02-02T07:41:47.931Z,100838.87
2019-02-02T07:42:52.291Z,100841.38
2019-02-02T07:43:56.505Z,100835.52
2019-02-02T07:45:00.811Z,100841.23
2019-02-02T07:46:14.700Z,100852.39
2019-02-02T07:47:09.408Z,100846.23
2019-02-02T07:48:13.794Z,100846.23
2019-02-02T07:49:18.124Z,100842.55
2019-02-02T07:50:22.457Z,100842.88
2019-02-02T07:51:26.723Z,100836.36
2019-02-02T07:52:31.074Z,100845.05
2019-02-02T07:53:35.414Z,100839.20
2019-02-02T07:54:39.665Z,100841.20
2019-02-02T07:55:43.975Z,100840.55
2019-02-02T07:56:48.379Z,100840.88
2019-02-02T07:57:52.726Z,100835.70
2019-02-02T07:58:57.041Z,100835.02
2019-02-02T08:00:01.337Z,100833.53
2019-02-02T08:01:05.618Z,100839.88
2019-02-02T08:02:09.847Z,100835.53
2019-02-02T08:03:14.395Z,100839.04
2019-02-02T08:04:18.708Z,100837.88
2019-02-02T08:05:23.019Z,100838.71
2019-02-02T08:06:27.355Z,100835.20
2019-02-02T08:07:31.765Z,100836.86
2019-02-02T08:08:36.082Z,100839.39
2019-02-02T08:09:40.450Z,100845.23
2019-02-02T08:10:44.679Z,100840.37
2019-02-02T08:11:49.037Z,100844.22
2019-02-02T08:12:53.330Z,100844.88
2019-02-02T08:13:57.713Z,100845.56
2019-02-02T08:15:02.113Z,100850.58
2019-02-02T08:16:06.455Z,100847.05
2019-02-02T08:17:10.746Z,100852.91
2019-02-02T08:18:14.999Z,100847.23
2019-02-02T08:19:19.242Z,100851.25
2019-02-02T08:20:23.764Z,100847.91
2019-02-02T08:21:28.119Z,100850.08
2019-02-02T08:22:32.387Z,100841.56
2019-02-02T08:23:36.728Z,100846.23
2019-02-02T08:24:41.070Z,100841.22
2019-02-02T08:25:45.553Z,100842.05
2019-02-02T08:26:49.865Z,100841.72
2019-02-02T08:27:54.078Z,100838.03
2019-02-02T08:28:58.375Z,100846.39
2019-02-02T08:30:02.773Z,100838.20
2019-02-02T08:31:06.994Z,100842.88
2019-02-02T08:32:11.308Z,100849.22
2019-02-02T08:33:15.572Z,100846.22
2019-02-02T08:34:19.830Z,100843.89
2019-02-02T08:35:24.088Z,100847.73
2019-02-02T08:36:28.447Z,100846.05
2019-02-02T08:37:32.686Z,100841.72
2019-02-02T08:38:37.134Z,100845.73
2019-02-02T08:39:41.319Z,100848.72
2019-02-02T08:40:45.733Z,100843.55
2019-02-02T08:41:50.882Z,100845.72
2019-02-02T08:42:54.458Z,100847.22
2019-02-02T08:43:58.799Z,100839.20
2019-02-02T08:45:02.963Z,100845.55
2019-02-02T08:46:07.235Z,100843.55
2019-02-02T08:47:11.609Z,100846.91
2019-02-02T08:48:16.035Z,100841.53
2019-02-02T08:49:20.300Z,100842.55
2019-02-02T08:50:27.112Z,100843.20
2019-02-02T08:51:31.319Z,100847.91
2019-02-02T08:52:35.592Z,100847.91
2019-02-02T08:53:39.690Z,100849.22
2019-02-02T08:54:44.079Z,100844.54
2019-02-02T08:55:51.367Z,100847.73
2019-02-02T08:56:52.730Z,100849.23
2019-02-02T08:57:56.910Z,100846.89
2019-02-02T08:59:01.323Z,100848.89
2019-02-02T09:00:06.861Z,100847.06
2019-02-02T09:01:11.403Z,100845.88
2019-02-02T09:02:15.750Z,100852.73
2019-02-02T09:03:20.226Z,100850.58
2019-02-02T09:04:24.715Z,100852.42
2019-02-02T09:05:29.255Z,100850.92
2019-02-02T09:06:39.175Z,100856.92
2019-02-02T09:07:38.349Z,100858.43
2019-02-02T09:08:42.253Z,100862.95
2019-02-02T09:09:46.496Z,100853.60
2019-02-02T09:10:50.558Z,100852.27
2019-02-02T09:11:55.146Z,100862.95
2019-02-02T09:12:59.480Z,100864.45
2019-02-02T09:14:03.828Z,100860.77
2019-02-02T09:15:09.995Z,100860.61
2019-02-02T09:16:14.239Z,100857.91
2019-02-02T09:17:18.804Z,100858.59
2019-02-02T09:18:23.131Z,100855.75
2019-02-02T09:19:27.422Z,100855.59
2019-02-02T09:20:31.903Z,100860.25
2019-02-02T09:21:36.089Z,100857.55
2019-02-02T09:22:40.424Z,100860.08
2019-02-02T09:23:44.776Z,100856.58
2019-02-02T09:24:51.831Z,100855.90
2019-02-02T09:25:53.875Z,100852.56
2019-02-02T09:26:58.499Z,100858.75
2019-02-02T09:28:02.941Z,100859.25
2019-02-02T09:29:10.290Z,100851.05
2019-02-02T09:30:18.353Z,100856.58
2019-02-02T09:31:22.648Z,100856.23
2019-02-02T09:32:27.323Z,100865.59
2019-02-02T09:33:31.846Z,100859.10
2019-02-02T09:34:36.217Z,100863.29
2019-02-02T09:35:40.514Z,100865.60
2019-02-02T09:36:44.898Z,100870.95
2019-02-02T09:37:49.276Z,100868.13
2019-02-02T09:38:53.461Z,100866.29
2019-02-02T09:39:57.832Z,100873.30
2019-02-02T09:41:02.126Z,100862.44
2019-02-02T09:42:06.690Z,100865.46
2019-02-02T09:43:11.881Z,100869.61
2019-02-02T09:44:16.239Z,100867.63
2019-02-02T09:45:21.109Z,100869.79
2019-02-02T09:46:25.536Z,100871.63
2019-02-02T09:47:30.232Z,100867.30
2019-02-02T09:48:34.461Z,100868.95
2019-02-02T09:49:39.040Z,100865.29
2019-02-02T09:50:43.378Z,100867.64
2019-02-02T09:51:47.728Z,100868.97
2019-02-02T09:52:52.044Z,100866.47
2019-02-02T09:53:56.317Z,100874.66
2019-02-02T09:55:00.912Z,100867.61
2019-02-02T09:56:05.478Z,100862.58
2019-02-02T09:57:09.882Z,100867.95
2019-02-02T09:58:14.477Z,100867.59
2019-02-02T09:59:18.767Z,100866.26
2019-02-02T10:00:25.162Z,100864.25
2019-02-02T10:01:29.347Z,100860.22
2019-02-02T10:02:33.660Z,100863.58
2019-02-02T10:03:37.888Z,100851.38
2019-02-02T10:04:42.042Z,100855.23
2019-02-02T10:05:46.408Z,100848.85
2019-02-02T10:06:50.680Z,100845.85
2019-02-02T10:07:55.116Z,100844.98
2019-02-02T10:08:59.576Z,100847.03
2019-02-02T10:10:03.991Z,100846.02
2019-02-02T10:11:08.301Z,100848.37
2019-02-02T10:12:12.719Z,100857.22
2019-02-02T10:13:17.335Z,100853.20
2019-02-02T10:14:21.654Z,100855.57
2019-02-02T10:15:25.901Z,100852.56
2019-02-02T10:16:30.397Z,100857.89
2019-02-02T10:17:34.590Z,100851.22
2019-02-02T10:18:39.043Z,100858.23
2019-02-02T10:19:43.571Z,100855.73
2019-02-02T10:20:47.992Z,100854.55
2019-02-02T10:21:52.550Z,100854.56
2019-02-02T10:22:57.799Z,100856.06
2019-02-02T10:24:02.124Z,100862.25
2019-02-02T10:25:07.644Z,100859.57
2019-02-02T10:26:12.218Z,100863.26
2019-02-02T10:27:16.623Z,100862.41
2019-02-02T10:28:21.056Z,100858.22
2019-02-02T10:29:25.434Z,100856.23
2019-02-02T10:30:31.873Z,100856.22
2019-02-02T10:31:39.759Z,100859.40
2019-02-02T10:32:40.704Z,100857.23
2019-02-02T10:33:45.050Z,100854.22
2019-02-02T10:34:49.320Z,100852.21
2019-02-02T10:35:53.663Z,100856.72
2019-02-02T10:36:57.736Z,100847.86
2019-02-02T10:38:02.315Z,100849.52
2019-02-02T10:39:08.632Z,100852.38
2019-02-02T10:40:13.234Z,100849.70
2019-02-02T10:41:17.436Z,100861.75
2019-02-02T10:42:21.595Z,100848.53
2019-02-02T10:43:25.924Z,100849.20
2019-02-02T10:44:30.426Z,100847.20
2019-02-02T10:45:34.908Z,100843.84
2019-02-02T10:46:39.207Z,100847.34
2019-02-02T10:47:43.473Z,100853.21
2019-02-02T10:48:47.830Z,100850.55
2019-02-02T10:49:52.085Z,100847.53
2019-02-02T10:50:56.438Z,100856.91
2019-02-02T10:52:00.869Z,100853.21
2019-02-02T10:53:05.182Z,100851.55
2019-02-02T10:54:09.483Z,100853.90
2019-02-02T10:55:14.141Z,100850.87
2019-02-02T10:56:18.453Z,100854.56
2019-02-02T10:57:22.967Z,100859.08
2019-02-02T10:58:26.877Z,100857.56
2019-02-02T10:59:31.066Z,100857.89
2019-02-02T11:00:36.710Z,100857.56
2019-02-02T11:01:50.662Z,100861.76
2019-02-02T11:02:44.850Z,100862.24
2019-02-02T11:03:48.854Z,100860.57
2019-02-02T11:04:53.546Z,100859.56
2019-02-02T11:05:57.092Z,100861.58
2019-02-02T11:07:01.011Z,100858.25
2019-02-02T11:08:05.519Z,100859.56
2019-02-02T11:09:10.263Z,100859.73
2019-02-02T11:13:29.061Z,100857.56
2019-02-02T11:14:33.008Z,100855.06
2019-02-02T11:15:38.508Z,100854.05
2019-02-02T11:16:42.470Z,100855.02
2019-02-02T11:17:46.549Z,100861.06
2019-02-02T11:18:50.486Z,100863.06
2019-02-02T11:19:54.527Z,100860.08
2019-02-02T11:20:58.658Z,100861.90
2019-02-02T11:22:02.669Z,100857.55
2019-02-02T11:23:07.199Z,100860.55
2019-02-02T11:24:11.526Z,100856.39
2019-02-02T11:25:15.543Z,100860.91
2019-02-02T11:26:19.801Z,100861.56
2019-02-02T11:27:24.258Z,100859.90
2019-02-02T11:28:29.638Z,100858.23
2019-02-02T11:29:33.783Z,100864.59
2019-02-02T11:30:38.129Z,100864.27
2019-02-02T11:31:42.421Z,100863.75
2019-02-02T11:32:47.002Z,100859.56
2019-02-02T11:33:51.204Z,100863.19
2019-02-02T11:34:55.365Z,100869.58
2019-02-02T11:35:59.697Z,100865.08
2019-02-02T11:37:04.114Z,100868.59
2019-02-02T11:38:08.440Z,100865.91
2019-02-02T11:39:12.763Z,100862.58
2019-02-02T11:40:21.661Z,100862.75
2019-02-02T11:41:25.634Z,100860.71
2019-02-02T11:42:29.759Z,100859.90
2019-02-02T11:43:34.046Z,100854.20
2019-02-02T11:44:37.989Z,100856.71
2019-02-02T11:45:41.901Z,100854.03
2019-02-02T11:46:45.931Z,100858.03
2019-02-02T11:47:50.049Z,100856.88
2019-02-02T11:48:54.181Z,100854.20
2019-02-02T11:49:58.072Z,100852.02
2019-02-02T11:51:02.087Z,100847.50
2019-02-02T11:52:06.126Z,100843.15
2019-02-02T11:53:10.193Z,100846.16
2019-02-02T11:54:14.260Z,100851.19
2019-02-02T11:55:18.982Z,100852.52
2019-02-02T11:56:22.944Z,100844.97
2019-02-02T11:57:27.131Z,100843.13
2019-02-02T11:58:31.547Z,100850.66
2019-02-02T11:59:35.758Z,100845.81
2019-02-02T12:00:41.700Z,100843.13
2019-02-02T12:01:45.811Z,100842.14
2019-02-02T12:02:50.280Z,100846.16
2019-02-02T12:03:54.648Z,100844.14
2019-02-02T12:04:58.874Z,100848.98
2019-02-02T12:06:04.124Z,100841.44
2019-02-02T12:07:08.091Z,100839.11
2019-02-02T12:08:12.028Z,100831.75
2019-02-02T12:09:16.008Z,100838.13
2019-02-02T12:10:21.308Z,100835.93
2019-02-02T12:11:25.322Z,100835.09
2019-02-02T12:12:29.378Z,100840.30
2019-02-02T12:13:33.342Z,100839.97
2019-02-02T12:14:37.418Z,100839.29
2019-02-02T12:15:41.403Z,100837.75
2019-02-02T12:16:45.355Z,100835.41
2019-02-02T12:17:49.719Z,100829.56